< < Back
Terminal Aerodrome Forecast


Current Version              Previous Versions:   1  2  3  4  5  6  7  8  9  

Terminal Aerodrome Forecast

716
FTUS42 KGSP 030018 AAA
TAFCLT
TAF AMD
KCLT 030018Z 0300/0324 17006KT P6SM SCT025 BKN140 OVC250
      TEMPO 0303/0307 -TSRA OVC025CB
     FM030700 19008KT 6SM BR VCSH OVC008
     FM031300 22007G16KT P6SM BKN045 PROB30 0316/0322 4SM -TSRA
      OVC025CB=

Latest METAR

022
SAUS70 KWBC 030900 RRA
MTRCLT
METAR KCLT 030852Z 22007KT 10SM -RA BKN008 BKN049 OVC100 18/17 A2986 RMK
AO2 SLP105 P0001 60055 T01780167 58001


USA.gov is the U.S. government's official web portal to all federal, state and local government web resources and services.